sensor_id;sensor_type;location;lat;lon;timestamp;pressure;altitude;pressure_sealevel;temperature;humidity
70437;BME280;57877;39.750;-104.894;2022-09-09T00:00:37;83184.04;;;32.44;7.47
70437;BME280;57877;39.750;-104.894;2022-09-09T00:03:05;83181.69;;;32.69;7.19
70437;BME280;57877;39.750;-104.894;2022-09-09T00:05:31;83182.56;;;33.26;7.15
70437;BME280;57877;39.750;-104.894;2022-09-09T00:07:53;83184.33;;;34.61;7.20
70437;BME280;57877;39.750;-104.894;2022-09-09T00:10:21;83192.93;;;34.60;6.94
70437;BME280;57877;39.750;-104.894;2022-09-09T00:12:42;83197.36;;;34.10;6.93
70437;BME280;57877;39.750;-104.894;2022-09-09T00:15:11;83205.32;;;34.88;7.32
70437;BME280;57877;39.750;-104.894;2022-09-09T00:17:35;83209.68;;;34.80;6.95
70437;BME280;57877;39.750;-104.894;2022-09-09T00:19:58;83217.23;;;35.41;6.94
70437;BME280;57877;39.750;-104.894;2022-09-09T00:22:22;83224.69;;;35.62;6.77
70437;BME280;57877;39.750;-104.894;2022-09-09T00:24:47;83229.20;;;34.95;6.73
70437;BME280;57877;39.750;-104.894;2022-09-09T00:27:16;83229.89;;;34.77;7.07
70437;BME280;57877;39.750;-104.894;2022-09-09T00:29:41;83231.13;;;35.18;6.47
70437;BME280;57877;39.750;-104.894;2022-09-09T00:32:09;83229.63;;;34.77;6.17
70437;BME280;57877;39.750;-104.894;2022-09-09T00:34:27;83230.16;;;34.96;6.27
70437;BME280;57877;39.750;-104.894;2022-09-09T00:36:52;83231.18;;;34.91;5.89
70437;BME280;57877;39.750;-104.894;2022-09-09T00:39:24;83230.02;;;34.78;5.90
70437;BME280;57877;39.750;-104.894;2022-09-09T00:41:50;83226.45;;;33.69;6.15
70437;BME280;57877;39.750;-104.894;2022-09-09T00:44:16;83225.70;;;34.44;6.12
70437;BME280;57877;39.750;-104.894;2022-09-09T00:49:04;83223.75;;;34.00;6.38
70437;BME280;57877;39.750;-104.894;2022-09-09T00:51:29;83225.27;;;34.21;6.03
70437;BME280;57877;39.750;-104.894;2022-09-09T00:53:58;83227.12;;;34.60;6.79
70437;BME280;57877;39.750;-104.894;2022-09-09T00:56:14;83227.27;;;34.13;6.54
70437;BME280;57877;39.750;-104.894;2022-09-09T00:58:36;83224.85;;;34.27;6.22
70437;BME280;57877;39.750;-104.894;2022-09-09T01:01:05;83229.09;;;34.41;6.19
70437;BME280;57877;39.750;-104.894;2022-09-09T01:03:34;83235.39;;;32.06;7.44
70437;BME280;57877;39.750;-104.894;2022-09-09T01:06:01;83242.32;;;29.76;9.19
70437;BME280;57877;39.750;-104.894;2022-09-09T01:08:31;83239.98;;;29.54;9.86
70437;BME280;57877;39.750;-104.894;2022-09-09T01:10:48;83239.22;;;28.04;10.91
70437;BME280;57877;39.750;-104.894;2022-09-09T01:13:13;83239.36;;;28.29;11.20
70437;BME280;57877;39.750;-104.894;2022-09-09T01:15:32;83238.12;;;27.45;11.51
70437;BME280;57877;39.750;-104.894;2022-09-09T01:18:01;83241.19;;;28.00;11.45
70437;BME280;57877;39.750;-104.894;2022-09-09T01:20:25;83246.54;;;28.23;11.40
70437;BME280;57877;39.750;-104.894;2022-09-09T01:22:58;83255.72;;;28.63;11.10
70437;BME280;57877;39.750;-104.894;2022-09-09T01:25:27;83261.72;;;28.49;11.22
70437;BME280;57877;39.750;-104.894;2022-09-09T01:27:38;83273.08;;;29.69;10.52
70437;BME280;57877;39.750;-104.894;2022-09-09T01:30:04;83281.01;;;28.42;11.19
70437;BME280;57877;39.750;-104.894;2022-09-09T01:32:39;83295.47;;;29.92;10.55
70437;BME280;57877;39.750;-104.894;2022-09-09T01:34:54;83309.10;;;31.26;9.85
70437;BME280;57877;39.750;-104.894;2022-09-09T01:37:19;83322.21;;;31.39;9.60
70437;BME280;57877;39.750;-104.894;2022-09-09T01:39:46;83332.61;;;31.36;9.40
70437;BME280;57877;39.750;-104.894;2022-09-09T01:42:11;83340.72;;;31.88;9.39
70437;BME280;57877;39.750;-104.894;2022-09-09T01:44:35;83352.06;;;31.71;9.22
70437;BME280;57877;39.750;-104.894;2022-09-09T01:46:59;83354.54;;;31.71;9.16
70437;BME280;57877;39.750;-104.894;2022-09-09T01:49:24;83342.42;;;31.60;9.11
70437;BME280;57877;39.750;-104.894;2022-09-09T01:51:51;83323.06;;;31.42;9.13
70437;BME280;57877;39.750;-104.894;2022-09-09T01:54:14;83309.98;;;31.64;8.86
70437;BME280;57877;39.750;-104.894;2022-09-09T01:56:47;83307.49;;;31.81;8.71
70437;BME280;57877;39.750;-104.894;2022-09-09T01:59:15;83308.48;;;31.73;8.91
70437;BME280;57877;39.750;-104.894;2022-09-09T02:01:42;83308.68;;;31.80;8.79
70437;BME280;57877;39.750;-104.894;2022-09-09T02:03:58;83309.00;;;31.89;8.79
70437;BME280;57877;39.750;-104.894;2022-09-09T02:06:28;83312.48;;;31.79;8.80
70437;BME280;57877;39.750;-104.894;2022-09-09T02:08:49;83311.16;;;31.72;9.07
70437;BME280;57877;39.750;-104.894;2022-09-09T02:11:14;83307.92;;;32.10;8.94
70437;BME280;57877;39.750;-104.894;2022-09-09T02:13:39;83304.70;;;31.51;9.00
70437;BME280;57877;39.750;-104.894;2022-09-09T02:16:07;83306.58;;;31.69;9.18
70437;BME280;57877;39.750;-104.894;2022-09-09T02:18:32;83307.49;;;31.32;9.14
70437;BME280;57877;39.750;-104.894;2022-09-09T02:20:52;83310.12;;;31.28;9.36
70437;BME280;57877;39.750;-104.894;2022-09-09T02:23:18;83308.80;;;31.66;9.41
70437;BME280;57877;39.750;-104.894;2022-09-09T02:25:43;83312.14;;;30.27;9.82
70437;BME280;57877;39.750;-104.894;2022-09-09T02:28:08;83315.92;;;30.76;9.97
70437;BME280;57877;39.750;-104.894;2022-09-09T02:30:35;83317.25;;;29.97;10.45
70437;BME280;57877;39.750;-104.894;2022-09-09T02:33:00;83319.10;;;29.23;10.99
70437;BME280;57877;39.750;-104.894;2022-09-09T02:35:24;83320.45;;;29.10;11.03
70437;BME280;57877;39.750;-104.894;2022-09-09T02:37:51;83326.29;;;29.33;10.77
70437;BME280;57877;39.750;-104.894;2022-09-09T02:40:15;83329.26;;;29.40;10.41
70437;BME280;57877;39.750;-104.894;2022-09-09T02:42:41;83334.14;;;28.52;11.16
70437;BME280;57877;39.750;-104.894;2022-09-09T02:45:05;83337.52;;;28.99;10.80
70437;BME280;57877;39.750;-104.894;2022-09-09T02:47:36;83341.79;;;29.64;10.61
70437;BME280;57877;39.750;-104.894;2022-09-09T02:50:05;83342.63;;;28.46;11.14
70437;BME280;57877;39.750;-104.894;2022-09-09T02:52:30;83344.95;;;28.35;11.25
70437;BME280;57877;39.750;-104.894;2022-09-09T02:54:50;83341.65;;;28.83;11.13
70437;BME280;57877;39.750;-104.894;2022-09-09T02:57:17;83339.93;;;29.36;10.79
70437;BME280;57877;39.750;-104.894;2022-09-09T02:59:41;83339.91;;;29.12;11.03
70437;BME280;57877;39.750;-104.894;2022-09-09T03:02:06;83347.93;;;29.37;10.93
70437;BME280;57877;39.750;-104.894;2022-09-09T03:04:31;83357.54;;;29.65;10.85
70437;BME280;57877;39.750;-104.894;2022-09-09T03:06:58;83361.60;;;29.58;10.93
70437;BME280;57877;39.750;-104.894;2022-09-09T03:09:24;83360.40;;;29.94;11.01
70437;BME280;57877;39.750;-104.894;2022-09-09T03:11:50;83362.10;;;29.82;10.80
70437;BME280;57877;39.750;-104.894;2022-09-09T03:14:16;83365.96;;;29.81;10.87
70437;BME280;57877;39.750;-104.894;2022-09-09T03:16:41;83366.18;;;29.76;10.86
70437;BME280;57877;39.750;-104.894;2022-09-09T03:19:06;83366.36;;;30.29;11.01
70437;BME280;57877;39.750;-104.894;2022-09-09T03:21:31;83365.08;;;30.11;11.26
70437;BME280;57877;39.750;-104.894;2022-09-09T03:23:57;83365.45;;;29.47;11.45
70437;BME280;57877;39.750;-104.894;2022-09-09T03:26:23;83368.23;;;29.79;11.47
70437;BME280;57877;39.750;-104.894;2022-09-09T03:28:49;83370.25;;;29.68;11.74
70437;BME280;57877;39.750;-104.894;2022-09-09T03:31:15;83366.07;;;29.59;11.98
70437;BME280;57877;39.750;-104.894;2022-09-09T03:33:40;83363.95;;;29.44;11.62
70437;BME280;57877;39.750;-104.894;2022-09-09T03:36:05;83358.24;;;29.41;11.80
70437;BME280;57877;39.750;-104.894;2022-09-09T03:38:30;83356.63;;;29.21;12.07
70437;BME280;57877;39.750;-104.894;2022-09-09T03:40:57;83354.40;;;29.09;12.46
70437;BME280;57877;39.750;-104.894;2022-09-09T03:43:21;83351.40;;;29.08;12.03
70437;BME280;57877;39.750;-104.894;2022-09-09T03:45:47;83351.47;;;28.94;12.03
70437;BME280;57877;39.750;-104.894;2022-09-09T03:48:13;83353.45;;;28.99;12.30
70437;BME280;57877;39.750;-104.894;2022-09-09T03:50:39;83354.85;;;28.89;12.54
70437;BME280;57877;39.750;-104.894;2022-09-09T03:53:05;83357.26;;;29.09;12.65
70437;BME280;57877;39.750;-104.894;2022-09-09T03:55:31;83358.98;;;28.69;12.56
70437;BME280;57877;39.750;-104.894;2022-09-09T03:57:56;83364.02;;;28.61;12.67
70437;BME280;57877;39.750;-104.894;2022-09-09T04:00:21;83363.37;;;28.02;13.35
70437;BME280;57877;39.750;-104.894;2022-09-09T04:02:47;83361.42;;;28.05;13.49
70437;BME280;57877;39.750;-104.894;2022-09-09T04:05:12;83359.76;;;28.15;13.29
70437;BME280;57877;39.750;-104.894;2022-09-09T04:07:37;83357.38;;;27.85;13.37
70437;BME280;57877;39.750;-104.894;2022-09-09T04:10:02;83363.48;;;28.39;13.39
70437;BME280;57877;39.750;-104.894;2022-09-09T04:12:27;83365.51;;;28.14;13.50
70437;BME280;57877;39.750;-104.894;2022-09-09T04:14:53;83367.64;;;28.44;13.42
70437;BME280;57877;39.750;-104.894;2022-09-09T04:17:19;83366.39;;;28.10;13.52
70437;BME280;57877;39.750;-104.894;2022-09-09T04:19:45;83370.17;;;28.55;13.59
70437;BME280;57877;39.750;-104.894;2022-09-09T04:22:11;83370.53;;;28.29;13.63
70437;BME280;57877;39.750;-104.894;2022-09-09T04:24:37;83370.26;;;28.09;13.80
70437;BME280;57877;39.750;-104.894;2022-09-09T04:27:03;83371.89;;;28.27;13.68
70437;BME280;57877;39.750;-104.894;2022-09-09T04:29:29;83372.59;;;28.44;13.55
70437;BME280;57877;39.750;-104.894;2022-09-09T04:31:55;83376.92;;;28.42;13.64
70437;BME280;57877;39.750;-104.894;2022-09-09T04:34:21;83377.56;;;28.29;13.60
70437;BME280;57877;39.750;-104.894;2022-09-09T04:36:47;83376.41;;;28.66;13.62
70437;BME280;57877;39.750;-104.894;2022-09-09T04:39:13;83372.97;;;28.41;13.63
70437;BME280;57877;39.750;-104.894;2022-09-09T04:41:39;83369.54;;;28.73;13.91
70437;BME280;57877;39.750;-104.894;2022-09-09T04:44:05;83368.07;;;28.61;14.29
70437;BME280;57877;39.750;-104.894;2022-09-09T04:46:31;83367.11;;;28.49;14.14
70437;BME280;57877;39.750;-104.894;2022-09-09T04:48:57;83368.14;;;28.53;14.13
70437;BME280;57877;39.750;-104.894;2022-09-09T04:51:23;83367.51;;;28.37;14.16
70437;BME280;57877;39.750;-104.894;2022-09-09T04:53:49;83362.48;;;28.53;14.08
70437;BME280;57877;39.750;-104.894;2022-09-09T04:56:16;83361.66;;;28.25;14.14
70437;BME280;57877;39.750;-104.894;2022-09-09T04:58:41;83361.28;;;28.35;14.29
70437;BME280;57877;39.750;-104.894;2022-09-09T05:01:08;83368.39;;;28.51;14.57
70437;BME280;57877;39.750;-104.894;2022-09-09T05:03:33;83378.50;;;27.82;14.74
70437;BME280;57877;39.750;-104.894;2022-09-09T05:06:04;83370.64;;;28.00;14.03
70437;BME280;57877;39.750;-104.894;2022-09-09T05:08:25;83368.09;;;28.12;13.52
70437;BME280;57877;39.750;-104.894;2022-09-09T05:10:51;83351.95;;;27.83;13.19
70437;BME280;57877;39.750;-104.894;2022-09-09T05:13:17;83350.24;;;28.32;12.70
70437;BME280;57877;39.750;-104.894;2022-09-09T05:15:43;83351.94;;;28.80;12.67
70437;BME280;57877;39.750;-104.894;2022-09-09T05:18:09;83351.21;;;28.73;12.70
70437;BME280;57877;39.750;-104.894;2022-09-09T05:20:35;83348.86;;;28.85;12.89
70437;BME280;57877;39.750;-104.894;2022-09-09T05:23:01;83343.20;;;29.05;12.65
70437;BME280;57877;39.750;-104.894;2022-09-09T05:25:26;83334.31;;;28.83;12.78
70437;BME280;57877;39.750;-104.894;2022-09-09T05:27:51;83328.15;;;29.05;13.24
70437;BME280;57877;39.750;-104.894;2022-09-09T05:30:16;83332.63;;;28.64;12.83
70437;BME280;57877;39.750;-104.894;2022-09-09T05:32:42;83332.97;;;28.52;12.83
70437;BME280;57877;39.750;-104.894;2022-09-09T05:35:08;83334.14;;;28.65;12.77
70437;BME280;57877;39.750;-104.894;2022-09-09T05:37:34;83332.06;;;28.80;13.35
70437;BME280;57877;39.750;-104.894;2022-09-09T05:40:00;83327.37;;;28.63;13.53
70437;BME280;57877;39.750;-104.894;2022-09-09T05:42:30;83333.65;;;28.17;13.63
70437;BME280;57877;39.750;-104.894;2022-09-09T05:44:51;83340.21;;;28.38;13.68
70437;BME280;57877;39.750;-104.894;2022-09-09T05:47:17;83347.09;;;27.76;14.42
70437;BME280;57877;39.750;-104.894;2022-09-09T05:49:43;83352.55;;;27.81;14.39
70437;BME280;57877;39.750;-104.894;2022-09-09T05:52:08;83358.11;;;27.80;14.40
70437;BME280;57877;39.750;-104.894;2022-09-09T05:54:34;83365.24;;;27.87;14.38
70437;BME280;57877;39.750;-104.894;2022-09-09T05:56:59;83371.16;;;27.87;14.64
70437;BME280;57877;39.750;-104.894;2022-09-09T05:59:24;83378.42;;;27.97;14.58
70437;BME280;57877;39.750;-104.894;2022-09-09T06:01:49;83386.95;;;28.01;14.53
70437;BME280;57877;39.750;-104.894;2022-09-09T06:04:14;83394.71;;;27.96;14.44
70437;BME280;57877;39.750;-104.894;2022-09-09T06:06:39;83401.65;;;27.35;14.69
70437;BME280;57877;39.750;-104.894;2022-09-09T06:09:06;83415.07;;;25.95;15.56
70437;BME280;57877;39.750;-104.894;2022-09-09T06:11:30;83433.53;;;23.94;17.98
70437;BME280;57877;39.750;-104.894;2022-09-09T06:13:54;83437.33;;;22.80;19.87
70437;BME280;57877;39.750;-104.894;2022-09-09T06:16:21;83452.62;;;22.26;21.00
70437;BME280;57877;39.750;-104.894;2022-09-09T06:18:45;83472.68;;;20.28;24.93
70437;BME280;57877;39.750;-104.894;2022-09-09T06:21:15;83482.99;;;21.58;23.77
70437;BME280;57877;39.750;-104.894;2022-09-09T06:23:35;83496.45;;;20.17;25.92
70437;BME280;57877;39.750;-104.894;2022-09-09T06:26:03;83502.56;;;20.35;25.28
70437;BME280;57877;39.750;-104.894;2022-09-09T06:28:27;83529.41;;;21.68;24.24
70437;BME280;57877;39.750;-104.894;2022-09-09T06:30:58;83553.92;;;19.76;30.85
70437;BME280;57877;39.750;-104.894;2022-09-09T06:33:19;83580.94;;;19.57;33.93
70437;BME280;57877;39.750;-104.894;2022-09-09T06:35:51;83596.24;;;18.34;34.30
70437;BME280;57877;39.750;-104.894;2022-09-09T06:38:11;83626.75;;;18.24;34.65
70437;BME280;57877;39.750;-104.894;2022-09-09T06:40:37;83649.73;;;18.03;34.40
70437;BME280;57877;39.750;-104.894;2022-09-09T06:43:02;83680.44;;;16.41;36.46
70437;BME280;57877;39.750;-104.894;2022-09-09T06:45:28;83701.08;;;16.70;36.39
70437;BME280;57877;39.750;-104.894;2022-09-09T06:47:55;83715.29;;;16.04;36.97
70437;BME280;57877;39.750;-104.894;2022-09-09T06:50:20;83722.76;;;15.94;37.29
70437;BME280;57877;39.750;-104.894;2022-09-09T06:52:47;83728.12;;;15.44;37.15
70437;BME280;57877;39.750;-104.894;2022-09-09T06:55:12;83729.23;;;15.62;36.86
70437;BME280;57877;39.750;-104.894;2022-09-09T06:57:38;83746.53;;;15.13;38.09
70437;BME280;57877;39.750;-104.894;2022-09-09T07:00:05;83758.00;;;15.15;38.15
70437;BME280;57877;39.750;-104.894;2022-09-09T07:02:30;83753.57;;;15.14;38.55
70437;BME280;57877;39.750;-104.894;2022-09-09T07:04:56;83744.83;;;14.80;39.12
70437;BME280;57877;39.750;-104.894;2022-09-09T07:07:22;83749.80;;;15.86;37.47
70437;BME280;57877;39.750;-104.894;2022-09-09T07:09:48;83753.25;;;15.21;38.16
70437;BME280;57877;39.750;-104.894;2022-09-09T07:12:14;83749.52;;;15.54;38.20
70437;BME280;57877;39.750;-104.894;2022-09-09T07:14:40;83748.40;;;15.21;38.23
70437;BME280;57877;39.750;-104.894;2022-09-09T07:17:06;83740.01;;;15.51;37.59
70437;BME280;57877;39.750;-104.894;2022-09-09T07:19:32;83729.26;;;15.05;37.28
70437;BME280;57877;39.750;-104.894;2022-09-09T07:21:58;83714.29;;;14.53;38.62
70437;BME280;57877;39.750;-104.894;2022-09-09T07:24:25;83695.75;;;14.86;37.82
70437;BME280;57877;39.750;-104.894;2022-09-09T07:26:51;83689.81;;;14.49;37.90
70437;BME280;57877;39.750;-104.894;2022-09-09T07:29:16;83681.49;;;14.20;38.30
70437;BME280;57877;39.750;-104.894;2022-09-09T07:31:43;83682.93;;;13.69;39.09
70437;BME280;57877;39.750;-104.894;2022-09-09T07:34:08;83681.68;;;13.84;39.21
70437;BME280;57877;39.750;-104.894;2022-09-09T07:36:35;83687.80;;;14.27;38.67
70437;BME280;57877;39.750;-104.894;2022-09-09T07:39:02;83693.42;;;13.94;39.24
70437;BME280;57877;39.750;-104.894;2022-09-09T07:41:28;83700.68;;;14.40;39.51
70437;BME280;57877;39.750;-104.894;2022-09-09T07:43:53;83697.47;;;15.10;36.89
70437;BME280;57877;39.750;-104.894;2022-09-09T07:46:20;83716.23;;;14.69;36.56
70437;BME280;57877;39.750;-104.894;2022-09-09T07:48:45;83718.97;;;14.82;36.54
70437;BME280;57877;39.750;-104.894;2022-09-09T07:51:13;83727.94;;;16.26;33.78
70437;BME280;57877;39.750;-104.894;2022-09-09T07:53:37;83740.11;;;15.54;33.90
70437;BME280;57877;39.750;-104.894;2022-09-09T07:56:05;83744.83;;;15.58;33.88
70437;BME280;57877;39.750;-104.894;2022-09-09T07:58:29;83750.70;;;16.00;32.68
70437;BME280;57877;39.750;-104.894;2022-09-09T08:00:55;83762.21;;;15.85;33.01
70437;BME280;57877;39.750;-104.894;2022-09-09T08:03:21;83782.08;;;15.20;34.15
70437;BME280;57877;39.750;-104.894;2022-09-09T08:05:47;83797.12;;;15.00;34.56
70437;BME280;57877;39.750;-104.894;2022-09-09T08:08:13;83800.66;;;15.33;33.94
70437;BME280;57877;39.750;-104.894;2022-09-09T08:10:38;83799.87;;;15.98;33.14
70437;BME280;57877;39.750;-104.894;2022-09-09T08:13:04;83799.19;;;14.33;35.08
70437;BME280;57877;39.750;-104.894;2022-09-09T08:15:31;83808.96;;;15.26;34.51
70437;BME280;57877;39.750;-104.894;2022-09-09T08:17:56;83815.71;;;15.23;34.58
70437;BME280;57877;39.750;-104.894;2022-09-09T08:20:22;83822.24;;;15.39;34.13
70437;BME280;57877;39.750;-104.894;2022-09-09T08:22:49;83831.21;;;14.15;36.13
70437;BME280;57877;39.750;-104.894;2022-09-09T08:25:15;83834.97;;;14.88;35.41
70437;BME280;57877;39.750;-104.894;2022-09-09T08:27:41;83846.20;;;14.32;36.95
70437;BME280;57877;39.750;-104.894;2022-09-09T08:30:07;83862.25;;;13.61;38.13
70437;BME280;57877;39.750;-104.894;2022-09-09T08:32:33;83856.81;;;15.85;35.44
70437;BME280;57877;39.750;-104.894;2022-09-09T08:34:59;83856.91;;;14.66;36.37
70437;BME280;57877;39.750;-104.894;2022-09-09T08:37:25;83856.16;;;14.69;36.89
70437;BME280;57877;39.750;-104.894;2022-09-09T08:39:51;83845.01;;;15.06;36.91
70437;BME280;57877;39.750;-104.894;2022-09-09T08:42:27;83848.37;;;14.61;37.30
70437;BME280;57877;39.750;-104.894;2022-09-09T08:44:54;83839.50;;;14.81;37.87
70437;BME280;57877;39.750;-104.894;2022-09-09T08:47:15;83836.91;;;15.72;35.95
70437;BME280;57877;39.750;-104.894;2022-09-09T08:49:46;83843.12;;;15.60;35.51
70437;BME280;57877;39.750;-104.894;2022-09-09T08:52:01;83835.70;;;14.93;37.05
70437;BME280;57877;39.750;-104.894;2022-09-09T08:54:31;83825.51;;;15.00;36.93
70437;BME280;57877;39.750;-104.894;2022-09-09T08:56:52;83824.25;;;14.94;36.60
70437;BME280;57877;39.750;-104.894;2022-09-09T08:59:18;83815.99;;;14.90;37.29
70437;BME280;57877;39.750;-104.894;2022-09-09T09:01:51;83813.66;;;14.38;37.58
70437;BME280;57877;39.750;-104.894;2022-09-09T09:04:22;83816.21;;;15.56;35.48
70437;BME280;57877;39.750;-104.894;2022-09-09T09:06:45;83804.18;;;16.00;34.58
70437;BME280;57877;39.750;-104.894;2022-09-09T09:09:05;83793.87;;;15.51;35.23
70437;BME280;57877;39.750;-104.894;2022-09-09T09:11:27;83796.20;;;14.65;36.36
70437;BME280;57877;39.750;-104.894;2022-09-09T09:13:54;83800.81;;;15.26;35.50
70437;BME280;57877;39.750;-104.894;2022-09-09T09:16:23;83799.97;;;16.50;33.36
70437;BME280;57877;39.750;-104.894;2022-09-09T09:18:44;83794.47;;;16.06;33.87
70437;BME280;57877;39.750;-104.894;2022-09-09T09:21:13;83798.38;;;17.14;32.54
70437;BME280;57877;39.750;-104.894;2022-09-09T09:23:41;83801.72;;;16.69;32.41
70437;BME280;57877;39.750;-104.894;2022-09-09T09:26:05;83790.40;;;17.36;31.75
70437;BME280;57877;39.750;-104.894;2022-09-09T09:28:31;83770.17;;;16.46;32.33
70437;BME280;57877;39.750;-104.894;2022-09-09T09:30:58;83758.68;;;17.13;32.01
70437;BME280;57877;39.750;-104.894;2022-09-09T09:33:24;83763.25;;;17.32;31.51
70437;BME280;57877;39.750;-104.894;2022-09-09T09:35:46;83767.75;;;17.50;30.91
70437;BME280;57877;39.750;-104.894;2022-09-09T09:38:17;83765.38;;;17.51;31.29
70437;BME280;57877;39.750;-104.894;2022-09-09T09:43:04;83785.81;;;17.72;31.05
70437;BME280;57877;39.750;-104.894;2022-09-09T09:45:34;83791.23;;;17.45;31.14
70437;BME280;57877;39.750;-104.894;2022-09-09T09:48:00;83795.27;;;17.45;31.19
70437;BME280;57877;39.750;-104.894;2022-09-09T09:50:22;83802.72;;;17.42;31.24
70437;BME280;57877;39.750;-104.894;2022-09-09T09:52:54;83810.63;;;17.25;31.35
70437;BME280;57877;39.750;-104.894;2022-09-09T09:55:14;83806.56;;;16.96;31.66
70437;BME280;57877;39.750;-104.894;2022-09-09T09:57:40;83800.90;;;17.25;31.42
70437;BME280;57877;39.750;-104.894;2022-09-09T10:00:13;83801.12;;;17.10;31.71
70437;BME280;57877;39.750;-104.894;2022-09-09T10:02:37;83800.14;;;16.85;31.78
70437;BME280;57877;39.750;-104.894;2022-09-09T10:05:03;83791.12;;;17.19;31.39
70437;BME280;57877;39.750;-104.894;2022-09-09T10:07:24;83780.30;;;17.29;31.35
70437;BME280;57877;39.750;-104.894;2022-09-09T10:09:53;83772.13;;;17.20;31.59
70437;BME280;57877;39.750;-104.894;2022-09-09T10:12:23;83760.30;;;17.06;31.44
70437;BME280;57877;39.750;-104.894;2022-09-09T10:14:47;83756.59;;;17.33;31.01
70437;BME280;57877;39.750;-104.894;2022-09-09T10:17:16;83742.84;;;17.21;31.42
70437;BME280;57877;39.750;-104.894;2022-09-09T10:19:32;83723.77;;;17.45;31.15
70437;BME280;57877;39.750;-104.894;2022-09-09T10:22:10;83723.49;;;17.33;30.80
70437;BME280;57877;39.750;-104.894;2022-09-09T10:26:53;83724.48;;;17.33;31.08
70437;BME280;57877;39.750;-104.894;2022-09-09T10:29:24;83715.08;;;17.43;30.89
70437;BME280;57877;39.750;-104.894;2022-09-09T10:31:49;83708.07;;;17.23;31.12
70437;BME280;57877;39.750;-104.894;2022-09-09T10:34:15;83696.61;;;17.10;31.29
70437;BME280;57877;39.750;-104.894;2022-09-09T10:36:33;83682.89;;;17.40;31.14
70437;BME280;57877;39.750;-104.894;2022-09-09T10:39:01;83677.21;;;16.77;31.85
70437;BME280;57877;39.750;-104.894;2022-09-09T10:41:36;83673.10;;;16.74;31.82
70437;BME280;57877;39.750;-104.894;2022-09-09T10:44:02;83687.07;;;16.92;31.62
70437;BME280;57877;39.750;-104.894;2022-09-09T10:46:23;83713.82;;;16.87;31.56
70437;BME280;57877;39.750;-104.894;2022-09-09T10:48:54;83729.33;;;16.99;31.83
70437;BME280;57877;39.750;-104.894;2022-09-09T10:51:23;83732.19;;;17.10;31.65
70437;BME280;57877;39.750;-104.894;2022-09-09T10:53:40;83725.18;;;17.18;31.82
70437;BME280;57877;39.750;-104.894;2022-09-09T10:56:06;83723.85;;;17.24;31.29
70437;BME280;57877;39.750;-104.894;2022-09-09T10:58:31;83734.14;;;17.01;31.58
70437;BME280;57877;39.750;-104.894;2022-09-09T11:00:56;83732.39;;;17.11;31.88
70437;BME280;57877;39.750;-104.894;2022-09-09T11:03:21;83732.54;;;16.83;32.08
70437;BME280;57877;39.750;-104.894;2022-09-09T11:05:46;83732.33;;;16.94;31.81
70437;BME280;57877;39.750;-104.894;2022-09-09T11:08:13;83731.50;;;16.99;31.83
70437;BME280;57877;39.750;-104.894;2022-09-09T11:10:41;83733.40;;;16.40;32.73
70437;BME280;57877;39.750;-104.894;2022-09-09T11:13:05;83734.87;;;16.63;32.99
70437;BME280;57877;39.750;-104.894;2022-09-09T11:15:35;83731.03;;;16.33;33.45
70437;BME280;57877;39.750;-104.894;2022-09-09T11:17:56;83733.60;;;15.59;34.37
70437;BME280;57877;39.750;-104.894;2022-09-09T11:20:20;83732.66;;;16.14;33.60
70437;BME280;57877;39.750;-104.894;2022-09-09T11:22:50;83733.40;;;16.31;33.21
70437;BME280;57877;39.750;-104.894;2022-09-09T11:25:16;83741.35;;;15.53;34.18
70437;BME280;57877;39.750;-104.894;2022-09-09T11:27:43;83741.32;;;14.99;35.33
70437;BME280;57877;39.750;-104.894;2022-09-09T11:30:15;83742.35;;;15.36;34.75
70437;BME280;57877;39.750;-104.894;2022-09-09T11:32:43;83737.03;;;14.90;35.62
70437;BME280;57877;39.750;-104.894;2022-09-09T11:35:00;83745.20;;;15.59;34.50
70437;BME280;57877;39.750;-104.894;2022-09-09T11:37:36;83754.53;;;15.47;34.39
70437;BME280;57877;39.750;-104.894;2022-09-09T11:42:19;83763.65;;;15.59;33.58
70437;BME280;57877;39.750;-104.894;2022-09-09T11:44:39;83762.18;;;14.87;34.85
70437;BME280;57877;39.750;-104.894;2022-09-09T11:49:40;83777.76;;;14.04;36.25
70437;BME280;57877;39.750;-104.894;2022-09-09T11:51:57;83784.30;;;14.78;35.46
70437;BME280;57877;39.750;-104.894;2022-09-09T11:54:29;83785.90;;;14.39;36.30
70437;BME280;57877;39.750;-104.894;2022-09-09T11:56:49;83787.46;;;14.49;37.15
70437;BME280;57877;39.750;-104.894;2022-09-09T11:59:20;83793.48;;;15.39;35.86
70437;BME280;57877;39.750;-104.894;2022-09-09T12:01:43;83791.49;;;14.36;37.28
70437;BME280;57877;39.750;-104.894;2022-09-09T12:04:14;83794.31;;;14.39;37.31
70437;BME280;57877;39.750;-104.894;2022-09-09T12:06:41;83792.30;;;13.60;38.21
70437;BME280;57877;39.750;-104.894;2022-09-09T12:09:06;83789.80;;;13.12;38.95
70437;BME280;57877;39.750;-104.894;2022-09-09T12:11:26;83792.95;;;13.09;39.41
70437;BME280;57877;39.750;-104.894;2022-09-09T12:13:54;83798.66;;;12.72;40.09
70437;BME280;57877;39.750;-104.894;2022-09-09T12:18:41;83805.20;;;12.80;39.94
70437;BME280;57877;39.750;-104.894;2022-09-09T12:21:12;83808.67;;;13.49;38.71
70437;BME280;57877;39.750;-104.894;2022-09-09T12:23:39;83810.88;;;14.47;36.87
70437;BME280;57877;39.750;-104.894;2022-09-09T12:28:32;83826.76;;;11.66;41.38
70437;BME280;57877;39.750;-104.894;2022-09-09T12:30:58;83833.27;;;12.88;40.10
70437;BME280;57877;39.750;-104.894;2022-09-09T12:33:18;83838.83;;;12.07;41.56
70437;BME280;57877;39.750;-104.894;2022-09-09T12:35:45;83841.46;;;13.53;38.86
70437;BME280;57877;39.750;-104.894;2022-09-09T12:38:13;83838.55;;;14.14;38.06